sensor_id;sensor_type;location;lat;lon;timestamp;pressure;altitude;pressure_sealevel;temperature;humidity
19676;BME280;39539;52.202;9.876;2023-08-30T00:01:57;100129.13;;;11.99;100.00
19676;BME280;39539;52.202;9.876;2023-08-30T00:04:22;100127.38;;;11.93;100.00
19676;BME280;39539;52.202;9.876;2023-08-30T00:06:48;100122.16;;;11.86;100.00
19676;BME280;39539;52.202;9.876;2023-08-30T00:09:13;100122.16;;;11.86;100.00
19676;BME280;39539;52.202;9.876;2023-08-30T00:11:38;100115.94;;;11.74;100.00
19676;BME280;39539;52.202;9.876;2023-08-30T00:14:06;100134.41;;;11.87;100.00
19676;BME280;39539;52.202;9.876;2023-08-30T00:16:32;100133.25;;;11.83;100.00
19676;BME280;39539;52.202;9.876;2023-08-30T00:18:58;100138.31;;;11.85;100.00
19676;BME280;39539;52.202;9.876;2023-08-30T00:21:25;100131.25;;;11.79;100.00
19676;BME280;39539;52.202;9.876;2023-08-30T00:23:51;100137.72;;;11.83;100.00
19676;BME280;39539;52.202;9.876;2023-08-30T00:26:17;100142.63;;;11.86;100.00
19676;BME280;39539;52.202;9.876;2023-08-30T00:28:42;100131.59;;;11.82;100.00
19676;BME280;39539;52.202;9.876;2023-08-30T00:31:07;100136.13;;;11.82;100.00
19676;BME280;39539;52.202;9.876;2023-08-30T00:33:33;100126.97;;;11.78;100.00
19676;BME280;39539;52.202;9.876;2023-08-30T00:35:58;100137.97;;;11.81;100.00
19676;BME280;39539;52.202;9.876;2023-08-30T00:38:26;100126.50;;;11.81;100.00
19676;BME280;39539;52.202;9.876;2023-08-30T00:40:51;100132.31;;;11.78;100.00
19676;BME280;39539;52.202;9.876;2023-08-30T00:43:18;100128.09;;;11.70;100.00
19676;BME280;39539;52.202;9.876;2023-08-30T00:45:43;100132.03;;;11.67;100.00
19676;BME280;39539;52.202;9.876;2023-08-30T00:48:09;100124.34;;;11.59;100.00
19676;BME280;39539;52.202;9.876;2023-08-30T00:50:35;100139.56;;;11.71;100.00
19676;BME280;39539;52.202;9.876;2023-08-30T00:53:01;100135.84;;;11.72;100.00
19676;BME280;39539;52.202;9.876;2023-08-30T00:55:34;100116.38;;;11.59;100.00
19676;BME280;39539;52.202;9.876;2023-08-30T00:58:01;100134.44;;;11.69;100.00
19676;BME280;39539;52.202;9.876;2023-08-30T01:00:28;100137.94;;;11.69;100.00
19676;BME280;39539;52.202;9.876;2023-08-30T01:02:54;100137.50;;;11.73;100.00
19676;BME280;39539;52.202;9.876;2023-08-30T01:05:20;100140.47;;;11.64;100.00
19676;BME280;39539;52.202;9.876;2023-08-30T01:07:45;100141.75;;;11.74;100.00
19676;BME280;39539;52.202;9.876;2023-08-30T01:10:11;100130.28;;;11.61;100.00
19676;BME280;39539;52.202;9.876;2023-08-30T01:12:44;100135.59;;;11.61;100.00
19676;BME280;39539;52.202;9.876;2023-08-30T01:15:17;100132.06;;;11.49;100.00
19676;BME280;39539;52.202;9.876;2023-08-30T01:17:43;100125.31;;;11.35;100.00
19676;BME280;39539;52.202;9.876;2023-08-30T01:20:10;100124.81;;;11.26;100.00
19676;BME280;39539;52.202;9.876;2023-08-30T01:23:04;100129.63;;;11.17;100.00
19676;BME280;39539;52.202;9.876;2023-08-30T01:28:08;100136.75;;;11.05;100.00
19676;BME280;39539;52.202;9.876;2023-08-30T01:30:37;100118.41;;;10.97;100.00
19676;BME280;39539;52.202;9.876;2023-08-30T01:33:04;100126.25;;;10.92;100.00
19676;BME280;39539;52.202;9.876;2023-08-30T01:35:32;100116.19;;;10.75;100.00
19676;BME280;39539;52.202;9.876;2023-08-30T01:38:02;100121.59;;;10.69;100.00
19676;BME280;39539;52.202;9.876;2023-08-30T01:40:32;100117.25;;;10.56;100.00
19676;BME280;39539;52.202;9.876;2023-08-30T01:42:59;100120.13;;;10.54;100.00
19676;BME280;39539;52.202;9.876;2023-08-30T01:45:26;100109.56;;;10.48;100.00
19676;BME280;39539;52.202;9.876;2023-08-30T01:47:53;100110.28;;;10.55;100.00
19676;BME280;39539;52.202;9.876;2023-08-30T01:50:20;100117.16;;;10.63;100.00
19676;BME280;39539;52.202;9.876;2023-08-30T01:52:46;100114.88;;;10.66;100.00
19676;BME280;39539;52.202;9.876;2023-08-30T01:55:13;100116.19;;;10.75;100.00
19676;BME280;39539;52.202;9.876;2023-08-30T01:57:39;100117.84;;;10.76;100.00
19676;BME280;39539;52.202;9.876;2023-08-30T02:00:05;100120.22;;;10.85;100.00
19676;BME280;39539;52.202;9.876;2023-08-30T02:02:31;100122.19;;;10.89;100.00
19676;BME280;39539;52.202;9.876;2023-08-30T02:04:56;100123.00;;;10.90;100.00
19676;BME280;39539;52.202;9.876;2023-08-30T02:07:25;100131.13;;;10.95;100.00
19676;BME280;39539;52.202;9.876;2023-08-30T02:10:00;100117.81;;;10.95;100.00
19676;BME280;39539;52.202;9.876;2023-08-30T02:12:42;100118.06;;;10.93;100.00
19676;BME280;39539;52.202;9.876;2023-08-30T02:15:08;100125.34;;;10.98;100.00
19676;BME280;39539;52.202;9.876;2023-08-30T02:17:37;100125.34;;;10.98;100.00
19676;BME280;39539;52.202;9.876;2023-08-30T02:20:03;100114.59;;;10.93;100.00
19676;BME280;39539;52.202;9.876;2023-08-30T02:22:30;100121.53;;;10.94;100.00
19676;BME280;39539;52.202;9.876;2023-08-30T02:24:55;100116.81;;;10.96;100.00
19676;BME280;39539;52.202;9.876;2023-08-30T02:27:21;100103.13;;;10.92;100.00
19676;BME280;39539;52.202;9.876;2023-08-30T02:29:46;100101.88;;;10.95;100.00
19676;BME280;39539;52.202;9.876;2023-08-30T02:32:11;100113.25;;;10.84;100.00
19676;BME280;39539;52.202;9.876;2023-08-30T02:34:37;100115.03;;;10.71;100.00
19676;BME280;39539;52.202;9.876;2023-08-30T02:37:02;100118.78;;;10.64;100.00
19676;BME280;39539;52.202;9.876;2023-08-30T02:39:27;100127.16;;;10.67;100.00
19676;BME280;39539;52.202;9.876;2023-08-30T02:41:53;100129.50;;;10.57;100.00
19676;BME280;39539;52.202;9.876;2023-08-30T02:44:18;100120.75;;;10.50;100.00
19676;BME280;39539;52.202;9.876;2023-08-30T02:46:43;100113.47;;;10.45;100.00
19676;BME280;39539;52.202;9.876;2023-08-30T02:49:09;100116.94;;;10.46;100.00
19676;BME280;39539;52.202;9.876;2023-08-30T02:51:36;100120.63;;;10.45;100.00
19676;BME280;39539;52.202;9.876;2023-08-30T02:54:01;100111.75;;;10.32;100.00
19676;BME280;39539;52.202;9.876;2023-08-30T02:56:27;100116.03;;;10.33;100.00
19676;BME280;39539;52.202;9.876;2023-08-30T02:58:52;100119.13;;;10.30;100.00
19676;BME280;39539;52.202;9.876;2023-08-30T03:01:17;100113.00;;;10.30;100.00
19676;BME280;39539;52.202;9.876;2023-08-30T03:03:43;100113.81;;;10.30;100.00
19676;BME280;39539;52.202;9.876;2023-08-30T03:06:08;100104.44;;;10.21;100.00
19676;BME280;39539;52.202;9.876;2023-08-30T03:08:33;100100.78;;;10.22;100.00
19676;BME280;39539;52.202;9.876;2023-08-30T03:11:11;100112.94;;;10.37;100.00
19676;BME280;39539;52.202;9.876;2023-08-30T03:13:37;100111.28;;;10.36;100.00
19676;BME280;39539;52.202;9.876;2023-08-30T03:16:12;100117.38;;;10.43;100.00
19676;BME280;39539;52.202;9.876;2023-08-30T03:18:39;100116.13;;;10.45;100.00
19676;BME280;39539;52.202;9.876;2023-08-30T03:21:05;100112.44;;;10.46;100.00
19676;BME280;39539;52.202;9.876;2023-08-30T03:23:31;100123.38;;;10.56;100.00
19676;BME280;39539;52.202;9.876;2023-08-30T03:26:19;100121.00;;;10.67;100.00
19676;BME280;39539;52.202;9.876;2023-08-30T03:28:43;100109.34;;;10.68;100.00
19676;BME280;39539;52.202;9.876;2023-08-30T03:31:15;100117.47;;;10.73;100.00
19676;BME280;39539;52.202;9.876;2023-08-30T03:33:41;100109.72;;;10.71;100.00
19676;BME280;39539;52.202;9.876;2023-08-30T03:36:09;100103.81;;;10.69;100.00
19676;BME280;39539;52.202;9.876;2023-08-30T03:38:35;100098.34;;;10.64;100.00
19676;BME280;39539;52.202;9.876;2023-08-30T03:41:00;100097.69;;;10.50;100.00
19676;BME280;39539;52.202;9.876;2023-08-30T03:43:25;100099.94;;;10.47;100.00
19676;BME280;39539;52.202;9.876;2023-08-30T03:45:51;100095.75;;;10.39;100.00
19676;BME280;39539;52.202;9.876;2023-08-30T03:48:17;100103.06;;;10.44;100.00
19676;BME280;39539;52.202;9.876;2023-08-30T03:50:42;100103.50;;;10.41;100.00
19676;BME280;39539;52.202;9.876;2023-08-30T03:53:08;100108.63;;;10.36;100.00
19676;BME280;39539;52.202;9.876;2023-08-30T03:55:33;100107.03;;;10.34;100.00
19676;BME280;39539;52.202;9.876;2023-08-30T03:57:59;100108.50;;;10.30;100.00
19676;BME280;39539;52.202;9.876;2023-08-30T04:00:24;100080.53;;;10.03;100.00
19676;BME280;39539;52.202;9.876;2023-08-30T04:02:49;100113.28;;;10.15;100.00
19676;BME280;39539;52.202;9.876;2023-08-30T04:05:15;100106.94;;;10.16;100.00
19676;BME280;39539;52.202;9.876;2023-08-30T04:07:40;100106.81;;;10.11;100.00
19676;BME280;39539;52.202;9.876;2023-08-30T04:10:06;100097.97;;;10.17;100.00
19676;BME280;39539;52.202;9.876;2023-08-30T04:12:33;100096.50;;;10.21;100.00
19676;BME280;39539;52.202;9.876;2023-08-30T04:15:00;100094.63;;;10.28;100.00
19676;BME280;39539;52.202;9.876;2023-08-30T04:17:26;100102.97;;;10.32;100.00
19676;BME280;39539;52.202;9.876;2023-08-30T04:19:51;100099.44;;;10.38;100.00
19676;BME280;39539;52.202;9.876;2023-08-30T04:22:17;100100.66;;;10.36;100.00
19676;BME280;39539;52.202;9.876;2023-08-30T04:24:43;100106.06;;;10.29;100.00
19676;BME280;39539;52.202;9.876;2023-08-30T04:27:08;100103.13;;;10.37;100.00
19676;BME280;39539;52.202;9.876;2023-08-30T04:29:33;100090.03;;;10.36;100.00
19676;BME280;39539;52.202;9.876;2023-08-30T04:31:59;100094.88;;;10.45;100.00
19676;BME280;39539;52.202;9.876;2023-08-30T04:34:24;100092.41;;;10.44;100.00
19676;BME280;39539;52.202;9.876;2023-08-30T04:36:49;100087.41;;;10.54;100.00
19676;BME280;39539;52.202;9.876;2023-08-30T04:39:14;100088.16;;;10.61;100.00
19676;BME280;39539;52.202;9.876;2023-08-30T04:41:40;100073.25;;;10.60;100.00
19676;BME280;39539;52.202;9.876;2023-08-30T04:44:05;100094.28;;;10.80;100.00
19676;BME280;39539;52.202;9.876;2023-08-30T04:46:31;100081.53;;;10.70;100.00
19676;BME280;39539;52.202;9.876;2023-08-30T04:48:56;100084.00;;;10.84;100.00
19676;BME280;39539;52.202;9.876;2023-08-30T04:51:21;100088.81;;;10.93;100.00
19676;BME280;39539;52.202;9.876;2023-08-30T04:53:46;100084.72;;;11.09;100.00
19676;BME280;39539;52.202;9.876;2023-08-30T04:56:14;100088.00;;;11.23;100.00
19676;BME280;39539;52.202;9.876;2023-08-30T04:58:40;100093.50;;;11.40;100.00
19676;BME280;39539;52.202;9.876;2023-08-30T05:01:05;100090.22;;;11.56;100.00
19676;BME280;39539;52.202;9.876;2023-08-30T05:03:32;100094.09;;;11.72;100.00
19676;BME280;39539;52.202;9.876;2023-08-30T05:05:57;100103.28;;;11.88;100.00
19676;BME280;39539;52.202;9.876;2023-08-30T05:08:23;100096.81;;;12.07;100.00
19676;BME280;39539;52.202;9.876;2023-08-30T05:10:54;100089.41;;;12.21;100.00
19676;BME280;39539;52.202;9.876;2023-08-30T05:13:19;100088.00;;;12.42;100.00
19676;BME280;39539;52.202;9.876;2023-08-30T05:15:48;100092.47;;;12.65;100.00
19676;BME280;39539;52.202;9.876;2023-08-30T05:18:22;100092.13;;;12.73;100.00
19676;BME280;39539;52.202;9.876;2023-08-30T05:21:06;100090.00;;;12.87;100.00
19676;BME280;39539;52.202;9.876;2023-08-30T05:23:33;100079.66;;;12.91;100.00
19676;BME280;39539;52.202;9.876;2023-08-30T05:25:58;100071.78;;;12.96;100.00
19676;BME280;39539;52.202;9.876;2023-08-30T05:28:24;100068.03;;;13.09;100.00
19676;BME280;39539;52.202;9.876;2023-08-30T05:30:58;100072.50;;;13.20;100.00
19676;BME280;39539;52.202;9.876;2023-08-30T05:33:27;100069.94;;;13.25;100.00
19676;BME280;39539;52.202;9.876;2023-08-30T05:35:56;100073.41;;;13.54;100.00
19676;BME280;39539;52.202;9.876;2023-08-30T05:38:21;100075.59;;;13.74;100.00
19676;BME280;39539;52.202;9.876;2023-08-30T05:40:46;100067.34;;;13.92;100.00
19676;BME280;39539;52.202;9.876;2023-08-30T05:43:12;100069.69;;;14.06;100.00
19676;BME280;39539;52.202;9.876;2023-08-30T05:45:37;100063.31;;;14.07;100.00
19676;BME280;39539;52.202;9.876;2023-08-30T05:48:03;100080.63;;;14.21;100.00
19676;BME280;39539;52.202;9.876;2023-08-30T05:50:29;100074.63;;;14.14;100.00
19676;BME280;39539;52.202;9.876;2023-08-30T05:52:54;100054.03;;;14.14;100.00
19676;BME280;39539;52.202;9.876;2023-08-30T05:55:20;100065.94;;;14.24;100.00
19676;BME280;39539;52.202;9.876;2023-08-30T05:57:45;100041.94;;;14.29;100.00
19676;BME280;39539;52.202;9.876;2023-08-30T06:00:11;100039.50;;;14.44;100.00
19676;BME280;39539;52.202;9.876;2023-08-30T06:02:38;100027.78;;;14.67;100.00
19676;BME280;39539;52.202;9.876;2023-08-30T06:05:04;100040.63;;;14.92;100.00
19676;BME280;39539;52.202;9.876;2023-08-30T06:07:29;100036.78;;;15.10;100.00
19676;BME280;39539;52.202;9.876;2023-08-30T06:09:54;100019.38;;;15.35;100.00
19676;BME280;39539;52.202;9.876;2023-08-30T06:12:20;100033.81;;;15.66;100.00
19676;BME280;39539;52.202;9.876;2023-08-30T06:14:45;100015.69;;;15.73;100.00
19676;BME280;39539;52.202;9.876;2023-08-30T06:17:18;100028.41;;;15.93;100.00
19676;BME280;39539;52.202;9.876;2023-08-30T06:19:47;100019.94;;;16.06;100.00
19676;BME280;39539;52.202;9.876;2023-08-30T06:22:13;100014.16;;;16.30;100.00
19676;BME280;39539;52.202;9.876;2023-08-30T06:24:38;100020.72;;;16.59;100.00
19676;BME280;39539;52.202;9.876;2023-08-30T06:27:04;100023.53;;;16.85;100.00
19676;BME280;39539;52.202;9.876;2023-08-30T06:29:29;100007.47;;;17.05;100.00
19676;BME280;39539;52.202;9.876;2023-08-30T06:31:55;100024.97;;;17.54;98.74
19676;BME280;39539;52.202;9.876;2023-08-30T06:34:20;100006.97;;;17.70;98.00
19676;BME280;39539;52.202;9.876;2023-08-30T06:36:46;100006.66;;;17.97;97.02
19676;BME280;39539;52.202;9.876;2023-08-30T06:39:11;99992.06;;;18.29;96.61
19676;BME280;39539;52.202;9.876;2023-08-30T06:41:36;99996.75;;;19.17;92.32
19676;BME280;39539;52.202;9.876;2023-08-30T06:44:02;99993.66;;;19.63;87.20
19676;BME280;39539;52.202;9.876;2023-08-30T06:46:28;99985.44;;;19.79;85.47
19676;BME280;39539;52.202;9.876;2023-08-30T06:48:53;99986.13;;;19.65;84.78
19676;BME280;39539;52.202;9.876;2023-08-30T06:51:19;99974.13;;;19.47;86.48
19676;BME280;39539;52.202;9.876;2023-08-30T06:53:44;99970.84;;;19.21;87.51
19676;BME280;39539;52.202;9.876;2023-08-30T06:56:09;99968.81;;;19.03;88.52
19676;BME280;39539;52.202;9.876;2023-08-30T06:58:35;99965.19;;;18.83;88.54
19676;BME280;39539;52.202;9.876;2023-08-30T07:01:00;99967.38;;;18.71;89.34
19676;BME280;39539;52.202;9.876;2023-08-30T07:03:25;99966.88;;;18.64;90.54
19676;BME280;39539;52.202;9.876;2023-08-30T07:05:51;99966.78;;;18.84;90.20
19676;BME280;39539;52.202;9.876;2023-08-30T07:08:17;99962.88;;;19.06;87.73
19676;BME280;39539;52.202;9.876;2023-08-30T07:10:42;99963.66;;;19.41;86.31
19676;BME280;39539;52.202;9.876;2023-08-30T07:13:08;99979.22;;;20.55;80.84
19676;BME280;39539;52.202;9.876;2023-08-30T07:15:38;99971.84;;;22.25;72.34
19676;BME280;39539;52.202;9.876;2023-08-30T07:18:03;99962.13;;;23.55;68.26
19676;BME280;39539;52.202;9.876;2023-08-30T07:20:29;99951.88;;;23.74;65.09
19676;BME280;39539;52.202;9.876;2023-08-30T07:22:54;99956.22;;;23.75;64.72
19676;BME280;39539;52.202;9.876;2023-08-30T07:25:19;99948.78;;;24.47;62.34
19676;BME280;39539;52.202;9.876;2023-08-30T07:27:45;99946.22;;;24.77;60.50
19676;BME280;39539;52.202;9.876;2023-08-30T07:30:10;99945.44;;;25.20;59.57
19676;BME280;39539;52.202;9.876;2023-08-30T07:32:36;99936.38;;;26.31;55.83
19676;BME280;39539;52.202;9.876;2023-08-30T07:35:04;99927.38;;;27.47;50.27
19676;BME280;39539;52.202;9.876;2023-08-30T07:37:29;99914.25;;;28.63;49.75
19676;BME280;39539;52.202;9.876;2023-08-30T07:39:55;99905.53;;;29.46;47.37
19676;BME280;39539;52.202;9.876;2023-08-30T07:42:20;99878.94;;;29.62;45.60
19676;BME280;39539;52.202;9.876;2023-08-30T07:44:45;99893.78;;;29.93;44.92
19676;BME280;39539;52.202;9.876;2023-08-30T07:47:11;99896.22;;;30.49;45.05
19676;BME280;39539;52.202;9.876;2023-08-30T07:49:36;99889.50;;;30.85;43.33
19676;BME280;39539;52.202;9.876;2023-08-30T07:52:02;99885.81;;;30.97;44.29
19676;BME280;39539;52.202;9.876;2023-08-30T07:54:28;99882.91;;;31.09;43.57
19676;BME280;39539;52.202;9.876;2023-08-30T07:56:53;99871.59;;;30.53;43.48
19676;BME280;39539;52.202;9.876;2023-08-30T07:59:19;99867.97;;;30.49;43.16
19676;BME280;39539;52.202;9.876;2023-08-30T08:01:44;99857.00;;;30.49;43.34
19676;BME280;39539;52.202;9.876;2023-08-30T08:04:09;99858.53;;;30.27;44.43
19676;BME280;39539;52.202;9.876;2023-08-30T08:06:35;99851.38;;;30.22;44.58
19676;BME280;39539;52.202;9.876;2023-08-30T08:09:00;99844.66;;;30.58;44.68
19676;BME280;39539;52.202;9.876;2023-08-30T08:11:26;99839.47;;;30.53;44.29
19676;BME280;39539;52.202;9.876;2023-08-30T08:13:51;99822.78;;;30.42;43.37
19676;BME280;39539;52.202;9.876;2023-08-30T08:16:17;99840.97;;;30.70;43.58
19676;BME280;39539;52.202;9.876;2023-08-30T08:18:42;99826.03;;;29.74;43.99
19676;BME280;39539;52.202;9.876;2023-08-30T08:21:07;99833.00;;;29.71;43.47
19676;BME280;39539;52.202;9.876;2023-08-30T08:23:33;99831.88;;;29.72;44.53
19676;BME280;39539;52.202;9.876;2023-08-30T08:25:59;99833.63;;;30.00;44.12
19676;BME280;39539;52.202;9.876;2023-08-30T08:28:25;99816.97;;;30.44;44.42
19676;BME280;39539;52.202;9.876;2023-08-30T08:30:50;99833.47;;;30.67;43.14
19676;BME280;39539;52.202;9.876;2023-08-30T08:33:16;99809.88;;;29.37;44.53
19676;BME280;39539;52.202;9.876;2023-08-30T08:35:43;99813.38;;;28.62;46.43
19676;BME280;39539;52.202;9.876;2023-08-30T08:38:10;99815.94;;;28.99;46.47
19676;BME280;39539;52.202;9.876;2023-08-30T08:40:38;99821.22;;;29.87;46.57
19676;BME280;39539;52.202;9.876;2023-08-30T08:43:09;99819.03;;;30.51;43.41
19676;BME280;39539;52.202;9.876;2023-08-30T08:45:36;99810.53;;;30.36;44.63
19676;BME280;39539;52.202;9.876;2023-08-30T08:48:05;99815.63;;;29.16;46.36
19676;BME280;39539;52.202;9.876;2023-08-30T08:50:31;99814.84;;;27.79;47.28
19676;BME280;39539;52.202;9.876;2023-08-30T08:52:57;99812.78;;;27.14;50.18
19676;BME280;39539;52.202;9.876;2023-08-30T08:55:23;99807.03;;;26.82;51.20
19676;BME280;39539;52.202;9.876;2023-08-30T08:57:48;99814.41;;;26.07;52.00
19676;BME280;39539;52.202;9.876;2023-08-30T09:00:15;99808.59;;;25.58;53.70
19676;BME280;39539;52.202;9.876;2023-08-30T09:02:42;99816.25;;;25.35;55.75
19676;BME280;39539;52.202;9.876;2023-08-30T09:05:08;99821.19;;;24.77;56.13
19676;BME280;39539;52.202;9.876;2023-08-30T09:07:34;99821.22;;;24.59;56.71
19676;BME280;39539;52.202;9.876;2023-08-30T09:10:00;99829.19;;;24.64;57.11
19676;BME280;39539;52.202;9.876;2023-08-30T09:12:26;99822.34;;;24.58;59.01
19676;BME280;39539;52.202;9.876;2023-08-30T09:14:55;99832.66;;;25.00;58.70
19676;BME280;39539;52.202;9.876;2023-08-30T09:17:23;99829.72;;;25.14;57.93
19676;BME280;39539;52.202;9.876;2023-08-30T09:19:49;99832.56;;;25.35;57.43
19676;BME280;39539;52.202;9.876;2023-08-30T09:22:15;99824.06;;;25.36;57.96
19676;BME280;39539;52.202;9.876;2023-08-30T09:24:41;99832.97;;;26.13;54.71
19676;BME280;39539;52.202;9.876;2023-08-30T09:27:06;99833.53;;;26.61;53.07
19676;BME280;39539;52.202;9.876;2023-08-30T09:29:33;99823.50;;;27.31;52.40
19676;BME280;39539;52.202;9.876;2023-08-30T09:32:00;99821.53;;;28.18;49.36
19676;BME280;39539;52.202;9.876;2023-08-30T09:34:26;99825.13;;;28.22;48.09
19676;BME280;39539;52.202;9.876;2023-08-30T09:36:52;99820.00;;;28.45;48.48
19676;BME280;39539;52.202;9.876;2023-08-30T09:39:17;99806.44;;;28.64;48.29
19676;BME280;39539;52.202;9.876;2023-08-30T09:41:44;99809.88;;;29.37;48.11
19676;BME280;39539;52.202;9.876;2023-08-30T09:44:20;99806.03;;;29.58;47.63
19676;BME280;39539;52.202;9.876;2023-08-30T09:46:53;99809.06;;;30.04;46.15
19676;BME280;39539;52.202;9.876;2023-08-30T09:49:23;99805.63;;;30.26;45.73
19676;BME280;39539;52.202;9.876;2023-08-30T09:51:50;99805.53;;;30.42;46.99
19676;BME280;39539;52.202;9.876;2023-08-30T09:54:22;99806.78;;;30.25;45.24
19676;BME280;39539;52.202;9.876;2023-08-30T09:56:48;99800.03;;;29.52;46.44
19676;BME280;39539;52.202;9.876;2023-08-30T09:59:17;99796.81;;;29.15;46.67
19676;BME280;39539;52.202;9.876;2023-08-30T10:01:43;99794.69;;;29.40;46.85
19676;BME280;39539;52.202;9.876;2023-08-30T10:04:10;99787.47;;;30.02;45.48
19676;BME280;39539;52.202;9.876;2023-08-30T10:06:36;99779.97;;;29.64;46.73
19676;BME280;39539;52.202;9.876;2023-08-30T10:09:03;99786.78;;;30.25;44.76
19676;BME280;39539;52.202;9.876;2023-08-30T10:11:34;99779.88;;;30.73;45.42
19676;BME280;39539;52.202;9.876;2023-08-30T10:14:00;99778.75;;;30.97;43.95
19676;BME280;39539;52.202;9.876;2023-08-30T10:16:26;99779.75;;;30.66;44.77
19676;BME280;39539;52.202;9.876;2023-08-30T10:19:00;99780.81;;;30.38;44.81
19676;BME280;39539;52.202;9.876;2023-08-30T10:21:27;99774.91;;;29.15;46.50
19676;BME280;39539;52.202;9.876;2023-08-30T10:23:55;99775.22;;;28.65;46.74
19676;BME280;39539;52.202;9.876;2023-08-30T10:26:23;99767.22;;;27.64;49.63
19676;BME280;39539;52.202;9.876;2023-08-30T10:28:54;99765.75;;;26.38;51.53
19676;BME280;39539;52.202;9.876;2023-08-30T10:31:20;99772.16;;;26.01;53.27
19676;BME280;39539;52.202;9.876;2023-08-30T10:33:49;99774.34;;;25.86;55.73
19676;BME280;39539;52.202;9.876;2023-08-30T10:36:25;99768.91;;;25.86;53.07
19676;BME280;39539;52.202;9.876;2023-08-30T10:38:54;99772.28;;;25.83;55.24
19676;BME280;39539;52.202;9.876;2023-08-30T10:41:25;99774.50;;;25.81;54.05
19676;BME280;39539;52.202;9.876;2023-08-30T10:43:52;99758.97;;;25.31;55.81
19676;BME280;39539;52.202;9.876;2023-08-30T10:46:31;99774.44;;;25.39;55.53
19676;BME280;39539;52.202;9.876;2023-08-30T10:49:13;99769.94;;;25.43;56.04
19676;BME280;39539;52.202;9.876;2023-08-30T10:51:42;99774.72;;;25.46;55.04
19676;BME280;39539;52.202;9.876;2023-08-30T10:54:17;99775.31;;;25.31;54.56
19676;BME280;39539;52.202;9.876;2023-08-30T10:56:55;99770.19;;;25.29;54.23
19676;BME280;39539;52.202;9.876;2023-08-30T10:59:23;99756.94;;;25.10;55.21
19676;BME280;39539;52.202;9.876;2023-08-30T11:01:53;99749.13;;;25.09;57.05
19676;BME280;39539;52.202;9.876;2023-08-30T11:04:39;99753.44;;;25.10;59.29
19676;BME280;39539;52.202;9.876;2023-08-30T11:07:07;99743.41;;;25.40;58.70
19676;BME280;39539;52.202;9.876;2023-08-30T11:09:36;99738.88;;;25.44;55.43
19676;BME280;39539;52.202;9.876;2023-08-30T11:12:10;99739.72;;;25.66;57.05
19676;BME280;39539;52.202;9.876;2023-08-30T11:14:40;99735.84;;;25.46;53.63
19676;BME280;39539;52.202;9.876;2023-08-30T11:17:10;99724.81;;;25.04;55.16
19676;BME280;39539;52.202;9.876;2023-08-30T11:19:35;99726.03;;;24.77;56.10
19676;BME280;39539;52.202;9.876;2023-08-30T11:22:03;99717.16;;;24.50;59.31
19676;BME280;39539;52.202;9.876;2023-08-30T11:27:39;99711.19;;;23.35;61.69
19676;BME280;39539;52.202;9.876;2023-08-30T11:30:10;99716.06;;;22.76;62.56
19676;BME280;39539;52.202;9.876;2023-08-30T11:32:38;99711.53;;;22.31;64.13
19676;BME280;39539;52.202;9.876;2023-08-30T11:35:06;99709.59;;;22.09;67.37
19676;BME280;39539;52.202;9.876;2023-08-30T11:37:32;99722.88;;;21.97;68.05
19676;BME280;39539;52.202;9.876;2023-08-30T11:39:59;99713.19;;;21.82;66.59
19676;BME280;39539;52.202;9.876;2023-08-30T11:42:26;99700.81;;;21.53;65.74
19676;BME280;39539;52.202;9.876;2023-08-30T11:44:51;99707.97;;;21.49;69.21
19676;BME280;39539;52.202;9.876;2023-08-30T11:47:22;99717.75;;;21.45;70.28
19676;BME280;39539;52.202;9.876;2023-08-30T11:49:48;99711.44;;;21.22;71.74
19676;BME280;39539;52.202;9.876;2023-08-30T11:52:17;99701.16;;;21.24;70.89
19676;BME280;39539;52.202;9.876;2023-08-30T11:54:44;99715.53;;;21.34;71.70
19676;BME280;39539;52.202;9.876;2023-08-30T11:57:10;99707.06;;;21.40;71.98
19676;BME280;39539;52.202;9.876;2023-08-30T11:59:36;99709.34;;;21.33;72.54
19676;BME280;39539;52.202;9.876;2023-08-30T12:02:03;99709.34;;;21.47;72.28
19676;BME280;39539;52.202;9.876;2023-08-30T12:04:42;99709.91;;;21.71;68.03
19676;BME280;39539;52.202;9.876;2023-08-30T12:07:08;99711.25;;;22.41;66.31
19676;BME280;39539;52.202;9.876;2023-08-30T12:09:34;99695.47;;;22.97;63.43
19676;BME280;39539;52.202;9.876;2023-08-30T12:12:09;99690.09;;;23.15;62.82
19676;BME280;39539;52.202;9.876;2023-08-30T12:14:35;99688.66;;;23.17;61.01
19676;BME280;39539;52.202;9.876;2023-08-30T12:17:01;99685.06;;;23.39;62.10
19676;BME280;39539;52.202;9.876;2023-08-30T12:19:28;99671.97;;;23.41;61.08
19676;BME280;39539;52.202;9.876;2023-08-30T12:21:53;99659.84;;;23.30;61.30
19676;BME280;39539;52.202;9.876;2023-08-30T12:24:22;99669.75;;;23.61;60.48
19676;BME280;39539;52.202;9.876;2023-08-30T12:26:49;99664.81;;;23.63;59.20
19676;BME280;39539;52.202;9.876;2023-08-30T12:29:16;99659.09;;;23.73;60.75
19676;BME280;39539;52.202;9.876;2023-08-30T12:31:41;99634.31;;;23.57;58.58
19676;BME280;39539;52.202;9.876;2023-08-30T12:34:10;99650.78;;;23.87;58.59
19676;BME280;39539;52.202;9.876;2023-08-30T12:36:36;99644.06;;;23.93;59.47
19676;BME280;39539;52.202;9.876;2023-08-30T12:39:02;99652.69;;;23.86;59.59
19676;BME280;39539;52.202;9.876;2023-08-30T12:41:29;99635.78;;;23.72;60.49
19676;BME280;39539;52.202;9.876;2023-08-30T12:43:58;99638.81;;;23.62;58.21
19676;BME280;39539;52.202;9.876;2023-08-30T12:46:51;99641.66;;;23.57;59.10
19676;BME280;39539;52.202;9.876;2023-08-30T12:49:16;99639.09;;;23.69;58.52
19676;BME280;39539;52.202;9.876;2023-08-30T12:51:43;99632.09;;;23.68;57.26
19676;BME280;39539;52.202;9.876;2023-08-30T12:54:14;99620.44;;;23.67;58.86
19676;BME280;39539;52.202;9.876;2023-08-30T12:56:39;99612.81;;;23.78;58.85